createdAt,value
2023-04-08T16:19:05.741Z,1014.55
2023-04-08T16:19:16.633Z,1014.57
2023-04-08T16:19:26.972Z,1014.57
2023-04-08T16:19:36.863Z,1014.57
2023-04-08T16:19:47.040Z,1014.58
2023-04-08T16:19:57.367Z,1014.58
2023-04-08T16:20:07.472Z,1014.55
2023-04-08T16:20:20.020Z,1014.59
2023-04-08T16:20:27.399Z,1014.57
2023-04-08T16:20:37.916Z,1014.58
2023-04-08T16:20:47.777Z,1014.54
2023-04-08T16:20:57.706Z,1014.54
2023-04-08T16:21:07.959Z,1014.56
2023-04-08T16:21:18.021Z,1014.54
2023-04-08T16:21:28.114Z,1014.49
2023-04-08T16:21:38.203Z,1014.57
2023-04-08T16:21:48.523Z,1014.55
2023-04-08T16:21:58.649Z,1014.55
2023-04-08T16:22:08.724Z,1014.52
2023-04-08T16:22:18.893Z,1014.54
2023-04-08T16:22:28.958Z,1014.54
2023-04-08T16:22:39.271Z,1014.51
2023-04-08T16:22:49.317Z,1014.50
2023-04-08T16:22:59.390Z,1014.53
2023-04-08T16:23:09.599Z,1014.50
2023-04-08T16:23:19.588Z,1014.49
2023-04-08T16:23:29.958Z,1014.50
2023-04-08T16:23:40.063Z,1014.49
2023-04-08T16:23:50.371Z,1014.51
2023-04-08T16:24:00.238Z,1014.54
2023-04-08T16:24:10.429Z,1014.53
2023-04-08T16:24:20.570Z,1014.52
2023-04-08T16:24:30.476Z,1014.49
2023-04-08T16:24:40.729Z,1014.53
2023-04-08T16:24:50.720Z,1014.49
2023-04-08T16:25:00.965Z,1014.62
2023-04-08T16:25:10.864Z,1014.71
2023-04-08T16:25:21.048Z,1014.64
2023-04-08T16:25:31.310Z,1014.75
2023-04-08T16:25:41.797Z,1014.86
2023-04-08T16:25:51.746Z,1014.98
2023-04-08T16:26:01.675Z,1015.12
2023-04-08T16:26:11.744Z,1015.17
2023-04-08T16:26:21.911Z,1015.26
2023-04-08T16:26:32.048Z,1015.25
2023-04-08T16:26:42.111Z,1015.33
2023-04-08T16:26:52.488Z,1015.37
2023-04-08T16:27:02.415Z,1015.40
2023-04-08T16:27:12.732Z,1015.43
2023-04-08T16:27:22.811Z,1015.46
2023-04-08T16:27:32.800Z,1015.45
2023-04-08T16:27:42.885Z,1015.48
2023-04-08T16:27:53.033Z,1015.47
2023-04-08T16:28:03.144Z,1015.49
2023-04-08T16:28:13.335Z,1015.48
2023-04-08T16:28:23.480Z,1015.50
2023-04-08T16:28:33.590Z,1015.58
2023-04-08T16:28:43.744Z,1015.65
2023-04-08T16:28:53.905Z,1015.73
2023-04-08T16:29:04.062Z,1015.79
2023-04-08T16:29:14.146Z,1015.85
2023-04-08T16:29:24.308Z,1015.88
2023-04-08T16:29:34.649Z,1015.95
2023-04-08T16:29:44.513Z,1016.00
2023-04-08T16:29:54.764Z,1015.99
2023-04-08T16:30:04.742Z,1016.03
2023-04-08T16:30:15.001Z,1016.01
2023-04-08T16:30:24.923Z,1016.09
2023-04-08T16:30:35.015Z,1016.16
2023-04-08T16:30:45.164Z,1016.18
2023-04-08T16:30:55.135Z,1016.21
2023-04-08T16:31:06.335Z,1016.30
2023-04-08T16:31:16.535Z,1016.32
2023-04-08T16:31:25.665Z,1016.39
2023-04-08T16:31:35.731Z,1016.45
2023-04-08T16:31:45.915Z,1016.42
2023-04-08T16:31:56.124Z,1016.50
2023-04-08T16:32:16.497Z,1016.59
2023-04-08T16:32:27.034Z,1016.58
2023-04-08T16:32:36.517Z,1016.60
2023-04-08T16:32:46.954Z,1016.61
2023-04-08T16:32:56.789Z,1016.61
2023-04-08T16:33:07.070Z,1016.60
2023-04-08T16:33:17.046Z,1016.62
2023-04-08T16:33:29.278Z,1016.62
2023-04-08T16:33:37.251Z,1016.62
2023-04-08T16:33:47.406Z,1016.63
2023-04-08T16:33:57.574Z,1016.61
2023-04-08T16:34:07.778Z,1016.64
2023-04-08T16:34:17.770Z,1016.62
2023-04-08T16:34:38.007Z,1016.63
2023-04-08T16:34:48.210Z,1016.60
2023-04-08T16:34:58.217Z,1016.63
2023-04-08T16:35:08.377Z,1016.66
2023-04-08T16:35:18.460Z,1016.67
2023-04-08T16:35:28.578Z,1016.66
2023-04-08T16:35:39.045Z,1016.65
2023-04-08T16:35:48.901Z,1016.64
2023-04-08T16:35:59.049Z,1016.65
2023-04-08T16:36:09.159Z,1016.63
2023-04-08T16:36:19.333Z,1016.68
2023-04-08T16:36:29.481Z,1016.64
2023-04-08T16:36:39.624Z,1016.62
2023-04-08T16:36:49.596Z,1016.65
2023-04-08T16:37:00.550Z,1016.67
2023-04-08T16:37:09.925Z,1016.64
2023-04-08T16:37:20.041Z,1016.69
2023-04-08T16:37:30.115Z,1016.70
2023-04-08T16:37:40.254Z,1016.72
2023-04-08T16:37:50.479Z,1016.72
2023-04-08T16:38:10.698Z,1016.72
2023-04-08T16:38:20.886Z,1016.73
2023-04-08T16:38:30.982Z,1016.74
2023-04-08T16:38:41.729Z,1016.74
2023-04-08T16:38:52.018Z,1016.77
2023-04-08T16:39:01.361Z,1016.85
2023-04-08T16:39:11.407Z,1016.88
2023-04-08T16:39:21.962Z,1016.92
2023-04-08T16:39:31.750Z,1016.94
2023-04-08T16:39:41.852Z,1016.93
2023-04-08T16:40:03.032Z,1017.02
2023-04-08T16:40:12.094Z,1017.07
2023-04-08T16:40:22.231Z,1017.09
2023-04-08T16:40:32.350Z,1017.16
2023-04-08T16:40:42.475Z,1017.17
2023-04-08T16:40:52.727Z,1017.21
2023-04-08T16:41:03.420Z,1017.26
2023-04-08T16:41:12.893Z,1017.24
2023-04-08T16:41:23.060Z,1017.27
2023-04-08T16:41:34.006Z,1017.27
2023-04-08T16:41:43.524Z,1017.20
2023-04-08T16:41:53.905Z,1017.25
2023-04-08T16:42:03.956Z,1017.27
2023-04-08T16:42:14.511Z,1017.24
2023-04-08T16:42:23.814Z,1017.27
2023-04-08T16:42:45.015Z,1017.24
2023-04-08T16:42:54.173Z,1017.25
2023-04-08T16:43:04.570Z,1017.29
2023-04-08T16:43:15.688Z,1017.25
2023-04-08T16:43:24.459Z,1017.21
2023-04-08T16:43:34.713Z,1017.27
2023-04-08T16:43:54.953Z,1017.20
2023-04-08T16:44:04.949Z,1017.24
2023-04-08T16:44:15.723Z,1017.21
2023-04-08T16:44:25.233Z,1017.25
2023-04-08T16:44:35.352Z,1017.25
2023-04-08T16:44:45.428Z,1017.20
2023-04-08T16:44:55.543Z,1017.23
2023-04-08T16:45:05.542Z,1017.28
2023-04-08T16:45:15.719Z,1017.28
2023-04-08T16:45:26.026Z,1017.32
2023-04-08T16:45:36.030Z,1017.29
2023-04-08T16:45:46.427Z,1017.35
2023-04-08T16:45:56.983Z,1017.35
2023-04-08T16:46:06.627Z,1017.39
2023-04-08T16:46:16.502Z,1017.38
2023-04-08T16:46:26.689Z,1017.40
2023-04-08T16:46:36.749Z,1017.43
2023-04-08T16:46:46.902Z,1017.43
2023-04-08T16:46:57.809Z,1017.40
2023-04-08T16:47:07.093Z,1017.36
2023-04-08T16:47:17.234Z,1017.39
2023-04-08T16:47:28.364Z,1017.46
2023-04-08T16:47:37.564Z,1017.46
2023-04-08T16:47:47.719Z,1017.44
2023-04-08T16:48:07.940Z,1017.48
2023-04-08T16:48:18.026Z,1017.45
2023-04-08T16:48:28.207Z,1017.39
2023-04-08T16:48:38.435Z,1017.37
2023-04-08T16:48:48.412Z,1017.37
2023-04-08T16:48:58.573Z,1017.33
2023-04-08T16:49:08.679Z,1017.32
2023-04-08T16:49:18.917Z,1017.25
2023-04-08T16:49:28.950Z,1017.17
2023-04-08T16:49:39.635Z,1017.17
2023-04-08T16:49:49.255Z,1017.12
2023-04-08T16:49:59.522Z,1017.10
2023-04-08T16:50:09.569Z,1017.09
2023-04-08T16:50:21.410Z,1017.02
2023-04-08T16:50:29.854Z,1017.02
2023-04-08T16:50:40.097Z,1017.03
2023-04-08T16:50:49.999Z,1017.02
2023-04-08T16:51:00.124Z,1017.02
2023-04-08T16:51:10.467Z,1017.02
2023-04-08T16:51:30.531Z,1017.02
2023-04-08T16:51:40.611Z,1016.96
2023-04-08T16:51:50.672Z,1016.97
2023-04-08T16:52:00.833Z,1016.97
2023-04-08T16:52:11.345Z,1016.97
2023-04-08T16:52:21.043Z,1016.90
2023-04-08T16:52:31.183Z,1016.89
2023-04-08T16:52:42.786Z,1016.86
2023-04-08T16:52:51.505Z,1016.84
2023-04-08T16:53:01.530Z,1016.79
2023-04-08T16:53:11.732Z,1016.78
2023-04-08T16:53:21.944Z,1016.75
2023-04-08T16:53:32.144Z,1016.74
2023-04-08T16:53:53.796Z,1016.66
2023-04-08T16:54:02.404Z,1016.65
2023-04-08T16:54:12.600Z,1016.65
2023-04-08T16:54:22.793Z,1016.62
2023-04-08T16:54:32.975Z,1016.65
2023-04-08T16:54:43.798Z,1016.63
2023-04-08T16:54:53.186Z,1016.60
2023-04-08T16:55:03.333Z,1016.69
2023-04-08T16:55:14.930Z,1016.65
2023-04-08T16:55:23.421Z,1016.63
2023-04-08T16:55:33.669Z,1016.64
2023-04-08T16:55:54.163Z,1016.67
2023-04-08T16:56:04.101Z,1016.67
2023-04-08T16:56:14.279Z,1016.70
2023-04-08T16:56:24.564Z,1016.64
2023-04-08T16:56:35.096Z,1016.65
2023-04-08T16:56:44.774Z,1016.68
2023-04-08T16:56:54.729Z,1016.66
2023-04-08T16:57:04.917Z,1016.67
2023-04-08T16:57:15.030Z,1016.67
2023-04-08T16:57:26.233Z,1016.61
2023-04-08T16:57:35.228Z,1016.62
2023-04-08T16:57:45.725Z,1016.68
2023-04-08T16:57:55.380Z,1016.69
2023-04-08T16:58:05.571Z,1016.69
2023-04-08T16:58:15.691Z,1016.66
2023-04-08T16:58:37.052Z,1016.65
2023-04-08T16:58:46.074Z,1016.64
2023-04-08T16:58:57.022Z,1016.66
2023-04-08T16:59:06.394Z,1016.68
2023-04-08T16:59:16.507Z,1016.66
2023-04-08T16:59:26.493Z,1016.67
2023-04-08T16:59:47.054Z,1016.66
2023-04-08T16:59:56.947Z,1016.66
2023-04-08T17:00:07.121Z,1016.69
2023-04-08T17:00:19.050Z,1016.70
2023-04-08T17:00:28.318Z,1016.71
2023-04-08T17:00:37.719Z,1016.64
2023-04-08T17:00:47.662Z,1016.65
2023-04-08T17:00:57.739Z,1016.66
2023-04-08T17:01:08.471Z,1016.69
2023-04-08T17:01:18.123Z,1016.68
2023-04-08T17:01:38.250Z,1016.69
2023-04-08T17:01:48.336Z,1016.69
2023-04-08T17:01:58.444Z,1016.68
2023-04-08T17:02:08.699Z,1016.71
2023-04-08T17:02:18.925Z,1016.71
2023-04-08T17:02:29.116Z,1016.74
2023-04-08T17:02:40.189Z,1016.69
2023-04-08T17:02:49.369Z,1016.69
2023-04-08T17:02:59.426Z,1016.71
2023-04-08T17:03:09.328Z,1016.73
2023-04-08T17:03:19.378Z,1016.73
2023-04-08T17:03:29.615Z,1016.69
2023-04-08T17:03:50.134Z,1016.65
2023-04-08T17:03:59.927Z,1016.70
2023-04-08T17:04:11.115Z,1016.65
2023-04-08T17:04:20.216Z,1016.67
2023-04-08T17:04:30.393Z,1016.68
2023-04-08T17:04:40.515Z,1016.69
2023-04-08T17:04:50.780Z,1016.63
2023-04-08T17:05:01.543Z,1016.61
2023-04-08T17:05:20.964Z,1016.53
2023-04-08T17:05:30.950Z,1016.46
2023-04-08T17:05:42.270Z,1016.44
2023-04-08T17:05:51.215Z,1016.38
2023-04-08T17:06:01.383Z,1016.39
2023-04-08T17:06:11.427Z,1016.31
2023-04-08T17:06:22.842Z,1016.27
2023-04-08T17:06:32.779Z,1016.25
2023-04-08T17:06:52.029Z,1016.20
2023-04-08T17:07:03.069Z,1016.17
2023-04-08T17:07:14.159Z,1016.22
2023-04-08T17:07:22.487Z,1016.11
2023-04-08T17:07:32.666Z,1016.04
2023-04-08T17:07:42.697Z,1015.96
2023-04-08T17:07:52.874Z,1015.91
2023-04-08T17:08:14.081Z,1015.83
2023-04-08T17:08:23.179Z,1015.77
2023-04-08T17:08:33.397Z,1015.68
2023-04-08T17:08:43.404Z,1015.65
2023-04-08T17:08:53.764Z,1015.57
2023-04-08T17:09:03.719Z,1015.48
2023-04-08T17:09:14.597Z,1015.49
2023-04-08T17:09:23.902Z,1015.48
2023-04-08T17:09:33.855Z,1015.48
2023-04-08T17:09:44.326Z,1015.40
2023-04-08T17:09:54.294Z,1015.32
2023-04-08T17:10:05.414Z,1015.25
2023-04-08T17:10:14.671Z,1015.19
2023-04-08T17:10:24.750Z,1015.08
2023-04-08T17:10:34.875Z,1014.96
2023-04-08T17:10:44.917Z,1014.86
2023-04-08T17:10:55.028Z,1014.69
2023-04-08T17:11:15.431Z,1014.57
2023-04-08T17:11:25.460Z,1014.54
2023-04-08T17:11:36.619Z,1014.52
2023-04-08T17:11:45.688Z,1014.45
2023-04-08T17:11:55.958Z,1014.30
2023-04-08T17:12:07.008Z,1014.15
2023-04-08T17:12:16.240Z,1014.02
2023-04-08T17:12:26.207Z,1013.83
2023-04-08T17:12:45.468Z,1013.51
2023-04-08T17:12:56.508Z,1013.49
2023-04-08T17:13:06.581Z,1013.49
2023-04-08T17:13:16.779Z,1013.37
2023-04-08T17:13:27.057Z,1013.29
2023-04-08T17:13:37.294Z,1013.26
2023-04-08T17:13:47.032Z,1013.55
2023-04-08T17:13:57.299Z,1013.69
2023-04-08T17:14:07.401Z,1013.89
2023-04-08T17:14:17.374Z,1014.06
2023-04-08T17:14:27.689Z,1014.15
2023-04-08T17:14:37.950Z,1014.24
2023-04-08T17:14:49.293Z,1014.37
2023-04-08T17:14:59.012Z,1014.52
2023-04-08T17:15:08.101Z,1014.66
2023-04-08T17:15:18.293Z,1014.80
2023-04-08T17:15:29.250Z,1014.86
2023-04-08T17:15:38.718Z,1014.97
